Terminal Aerodrome Forecast
Issued by NWS Jackson, KY

Home | Current Version | Previous Version | Text Only | Print | Product List | Glossary On
Versions: 1 2 3 4 5 6 7 8 9 10 11 12 13
000
FTUS43 KJKL 312320
TAFLOZ
TAF
KLOZ 312320Z 0100/0124 03003KT P6SM FEW050 FEW250
     FM010700 00000KT 3SM BR SKC
      TEMPO 0108/0112 1/2SM FG VV002
     FM011200 00000KT 2SM BR BKN010
     FM011300 02003KT P6SM FEW250=

USA.gov is the U.S. government's official web portal to all federal, state and local government web resources and services.